Terminal Aerodrome Forecast
Issued by NWS Boston, MA

Home | Current Version | Previous Version | Text Only | Print | Product List | Glossary Off
Versions: 1 2 3 4 5 6 7 8 9 10 11 12 13 14 15 16 17 18 19 20 21 22 23 24 25 26 27 28 29 30 31 32 33 34 35 36 37 38 39 40 41 42 43 44 45 46 47 48
000 FTUS41 KBOX 262013 AAA TAFPVD TAF AMD KPVD 262013Z 2620/2718 17010KT P6SM BKN250 FM270400 20007KT P6SM BKN080 FM270800 19008KT 6SM -SHRA BKN035 FM271100 20008KT 5SM -SHRA BR OVC015 FM271400 23008KT 3SM BR OVC008 FM271600 25008KT P6SM BKN015=

USA.gov is the U.S. government's official web portal to all federal, state and local government web resources and services.